createdAt,value
2019-02-15T00:00:52.334Z,123.80
2019-02-15T00:03:21.478Z,118.00
2019-02-15T00:05:50.622Z,121.97
2019-02-15T00:08:19.782Z,120.33
2019-02-15T00:10:48.968Z,114.87
2019-02-15T00:13:18.218Z,111.67
2019-02-15T00:15:47.462Z,123.00
2019-02-15T00:18:35.677Z,103.80
2019-02-15T00:21:35.950Z,114.10
2019-02-15T00:24:05.207Z,103.63
2019-02-15T00:26:34.390Z,111.57
2019-02-15T00:29:03.601Z,114.50
2019-02-15T00:31:32.846Z,114.60
2019-02-15T00:34:02.008Z,106.67
2019-02-15T00:36:31.190Z,105.93
2019-02-15T00:39:00.333Z,103.17
2019-02-15T00:41:29.470Z,113.93
2019-02-15T00:43:58.634Z,114.47
2019-02-15T00:46:45.762Z,103.97
2019-02-15T00:49:39.071Z,118.97
2019-02-15T00:52:23.429Z,116.13
2019-02-15T00:55:09.641Z,112.63
2019-02-15T00:57:56.514Z,116.33
2019-02-15T01:00:45.130Z,109.47
2019-02-15T01:03:48.750Z,103.33
2019-02-15T01:06:42.818Z,104.80
2019-02-15T01:09:31.613Z,112.00
2019-02-15T01:12:19.789Z,109.67
2019-02-15T01:14:48.942Z,104.97
2019-02-15T01:17:18.125Z,98.87
2019-02-15T01:19:47.359Z,111.43
2019-02-15T01:22:16.601Z,99.67
2019-02-15T01:24:45.910Z,73.57
2019-02-15T01:27:52.414Z,70.03
2019-02-15T01:30:37.038Z,54.33
2019-02-15T01:33:15.862Z,48.57
2019-02-15T01:36:13.169Z,42.37
2019-02-15T01:39:01.343Z,43.83
2019-02-15T01:41:48.582Z,36.00
2019-02-15T01:44:26.325Z,37.20
2019-02-15T01:47:14.541Z,38.23
2019-02-15T01:49:43.822Z,34.17
2019-02-15T01:52:13.081Z,36.37
2019-02-15T01:54:42.268Z,41.37
2019-02-15T01:57:11.422Z,37.90
2019-02-15T01:59:40.610Z,40.37
2019-02-15T02:02:09.841Z,36.30
2019-02-15T02:04:39.255Z,41.67
2019-02-15T02:07:08.409Z,35.87
2019-02-15T02:09:37.653Z,34.03
2019-02-15T02:12:06.957Z,39.90
2019-02-15T02:14:36.154Z,39.43
2019-02-15T02:17:05.314Z,36.63
2019-02-15T02:19:34.585Z,38.83
2019-02-15T02:22:03.730Z,39.33
2019-02-15T02:24:32.867Z,36.77
2019-02-15T02:27:02.088Z,47.07
2019-02-15T02:29:31.327Z,41.53
2019-02-15T02:32:00.510Z,38.20
2019-02-15T02:34:29.719Z,43.13
2019-02-15T02:36:58.894Z,44.80
2019-02-15T02:39:28.038Z,45.63
2019-02-15T02:41:57.322Z,45.83
2019-02-15T02:44:26.555Z,41.10
2019-02-15T02:46:55.782Z,42.50
2019-02-15T02:49:24.909Z,43.53
2019-02-15T02:51:54.074Z,49.90
2019-02-15T02:54:23.265Z,50.43
2019-02-15T02:56:52.470Z,54.97
2019-02-15T02:59:21.609Z,54.00
2019-02-15T03:01:50.759Z,50.07
2019-02-15T03:04:20.007Z,58.53
2019-02-15T03:06:49.218Z,62.10
2019-02-15T03:09:18.381Z,66.73
2019-02-15T03:11:47.658Z,67.17
2019-02-15T03:14:16.857Z,85.10
2019-02-15T03:16:46.019Z,81.10
2019-02-15T03:19:15.163Z,85.40
2019-02-15T03:21:44.322Z,78.07
2019-02-15T03:24:13.510Z,83.57
2019-02-15T03:26:42.671Z,87.70
2019-02-15T03:29:11.834Z,85.47
2019-02-15T03:31:40.992Z,86.90
2019-02-15T03:34:10.204Z,75.53
2019-02-15T03:36:57.315Z,83.67
2019-02-15T03:39:40.154Z,78.30
2019-02-15T03:42:12.321Z,78.83
2019-02-15T03:44:41.563Z,76.83
2019-02-15T03:47:10.826Z,74.30
2019-02-15T03:49:40.047Z,74.50
2019-02-15T03:52:09.250Z,75.43
2019-02-15T03:54:38.513Z,73.30
2019-02-15T03:57:07.650Z,75.23
2019-02-15T03:59:36.841Z,74.60
2019-02-15T04:02:05.999Z,82.40
2019-02-15T04:04:35.284Z,77.50
2019-02-15T04:07:04.448Z,89.87
2019-02-15T04:09:33.612Z,93.47
2019-02-15T04:12:04.822Z,84.67
2019-02-15T04:14:34.004Z,80.03
2019-02-15T04:17:03.206Z,86.33
2019-02-15T04:19:32.450Z,95.67
2019-02-15T04:22:01.609Z,99.17
2019-02-15T04:24:30.766Z,95.43
2019-02-15T04:26:59.998Z,87.93
2019-02-15T04:29:29.206Z,92.70
2019-02-15T04:31:58.419Z,81.03
2019-02-15T04:34:27.630Z,90.73
2019-02-15T04:36:56.775Z,86.70
2019-02-15T04:39:26.044Z,82.87
2019-02-15T04:41:55.217Z,83.37
2019-02-15T04:44:24.387Z,86.93
2019-02-15T04:46:53.535Z,79.50
2019-02-15T04:49:22.689Z,75.00
2019-02-15T04:51:51.826Z,73.03
2019-02-15T04:54:21.003Z,75.57
2019-02-15T04:56:50.190Z,70.67
2019-02-15T04:59:19.363Z,71.90
2019-02-15T05:01:48.509Z,62.23
2019-02-15T05:04:17.677Z,59.80
2019-02-15T05:06:46.837Z,66.73
2019-02-15T05:09:16.079Z,73.60
2019-02-15T05:11:45.258Z,75.50
2019-02-15T05:14:14.469Z,75.10
2019-02-15T05:16:43.635Z,70.50
2019-02-15T05:19:12.894Z,74.90
2019-02-15T05:21:42.079Z,66.37
2019-02-15T05:24:11.269Z,63.90
2019-02-15T05:26:40.519Z,66.33
2019-02-15T05:29:09.723Z,74.63
2019-02-15T05:31:38.914Z,64.80
2019-02-15T05:34:08.117Z,59.87
2019-02-15T05:36:37.329Z,60.93
2019-02-15T05:39:08.818Z,68.90
2019-02-15T05:41:37.953Z,81.07
2019-02-15T05:44:07.086Z,85.10
2019-02-15T05:46:36.252Z,75.93
2019-02-15T05:49:05.401Z,74.03
2019-02-15T05:51:34.680Z,80.10
2019-02-15T05:54:03.837Z,84.13
2019-02-15T05:56:33.103Z,84.67
2019-02-15T05:59:02.326Z,81.97
2019-02-15T06:01:31.670Z,81.13
2019-02-15T06:04:00.806Z,77.90
2019-02-15T06:06:29.988Z,73.67
2019-02-15T06:08:59.334Z,78.80
2019-02-15T06:11:28.562Z,79.40
2019-02-15T06:13:57.701Z,78.73
2019-02-15T06:16:27.794Z,76.20
2019-02-15T06:18:56.986Z,87.97
2019-02-15T06:21:26.181Z,95.63
2019-02-15T06:23:55.330Z,83.80
2019-02-15T06:26:24.493Z,95.20
2019-02-15T06:28:53.674Z,102.73
2019-02-15T06:31:22.944Z,115.60
2019-02-15T06:33:52.205Z,121.30
2019-02-15T06:36:21.339Z,115.40
2019-02-15T06:38:50.605Z,120.73
2019-02-15T06:41:20.121Z,125.00
2019-02-15T06:43:49.376Z,114.27
2019-02-15T06:46:18.515Z,118.47
2019-02-15T06:48:47.706Z,123.67
2019-02-15T06:51:16.864Z,122.00
2019-02-15T06:53:46.061Z,109.93
2019-02-15T06:56:15.227Z,107.77
2019-02-15T06:59:03.198Z,96.40
2019-02-15T07:01:40.685Z,100.57
2019-02-15T07:04:28.859Z,102.90
2019-02-15T07:06:58.030Z,100.13
2019-02-15T07:09:27.170Z,103.93
2019-02-15T07:11:56.306Z,111.17
2019-02-15T07:14:25.486Z,107.47
2019-02-15T07:16:54.698Z,118.00
2019-02-15T07:19:23.893Z,108.50
2019-02-15T07:21:53.053Z,105.57
2019-02-15T07:24:22.197Z,103.13
2019-02-15T07:26:51.352Z,108.00
2019-02-15T07:29:20.549Z,112.17
2019-02-15T07:31:49.773Z,104.63
2019-02-15T07:34:18.911Z,116.10
2019-02-15T07:36:48.401Z,104.30
2019-02-15T07:39:17.614Z,104.47
2019-02-15T07:41:46.848Z,97.60
2019-02-15T07:44:15.998Z,104.07
2019-02-15T07:46:45.190Z,105.23
2019-02-15T07:49:14.373Z,106.20
2019-02-15T07:51:43.653Z,108.43
2019-02-15T07:54:12.811Z,100.87
2019-02-15T07:56:42.014Z,110.53
2019-02-15T07:59:11.165Z,118.60
2019-02-15T08:01:40.337Z,119.87
2019-02-15T08:04:09.488Z,122.37
2019-02-15T08:06:38.657Z,132.30
2019-02-15T08:09:10.843Z,118.97
2019-02-15T08:11:40.023Z,124.67
2019-02-15T08:14:14.831Z,121.50
2019-02-15T08:16:40.074Z,105.40
2019-02-15T08:19:09.238Z,102.80
2019-02-15T08:21:38.411Z,103.73
2019-02-15T08:24:07.899Z,97.63
2019-02-15T08:26:37.159Z,100.87
2019-02-15T08:29:06.342Z,108.33
2019-02-15T08:31:35.501Z,89.67
2019-02-15T08:34:04.660Z,95.00
2019-02-15T08:36:33.796Z,109.10
2019-02-15T08:39:03.581Z,99.77
2019-02-15T08:41:32.777Z,100.97
2019-02-15T08:44:01.917Z,109.63
2019-02-15T08:46:31.102Z,99.80
2019-02-15T08:49:00.289Z,114.53
2019-02-15T08:51:29.437Z,117.27
2019-02-15T08:53:58.706Z,99.37
2019-02-15T08:56:27.864Z,114.40
2019-02-15T08:58:57.066Z,91.23
2019-02-15T09:01:26.337Z,107.30
2019-02-15T09:03:55.513Z,106.77
2019-02-15T09:06:24.719Z,96.03
2019-02-15T09:08:53.995Z,107.33
2019-02-15T09:11:23.194Z,96.17
2019-02-15T09:13:52.334Z,92.80
2019-02-15T09:16:21.511Z,91.03
2019-02-15T09:18:50.670Z,100.13
2019-02-15T09:21:19.842Z,90.83
2019-02-15T09:23:49.026Z,83.17
2019-02-15T09:26:18.533Z,98.80
2019-02-15T09:28:54.950Z,96.17
2019-02-15T09:31:24.118Z,93.27
2019-02-15T09:33:53.326Z,92.60
2019-02-15T09:36:22.574Z,92.37
2019-02-15T09:38:51.718Z,74.20
2019-02-15T09:41:20.865Z,71.60
2019-02-15T09:43:50.198Z,66.87
2019-02-15T09:46:20.299Z,72.77
2019-02-15T09:48:49.697Z,79.63
2019-02-15T09:51:18.882Z,84.63
2019-02-15T09:53:48.155Z,65.67
2019-02-15T09:56:17.301Z,69.40
2019-02-15T09:58:46.501Z,53.73
2019-02-15T10:01:15.670Z,52.40
2019-02-15T10:03:44.933Z,25.07
2019-02-15T10:06:14.081Z,24.90
2019-02-15T10:08:43.227Z,28.30
2019-02-15T10:11:12.385Z,34.57
2019-02-15T10:13:44.398Z,39.70
2019-02-15T10:16:13.585Z,45.07
2019-02-15T10:18:42.762Z,42.47
2019-02-15T10:21:11.898Z,36.90
2019-02-15T10:23:41.092Z,39.77
2019-02-15T10:26:10.312Z,42.67
2019-02-15T10:28:39.465Z,49.20
2019-02-15T10:31:08.753Z,39.57
2019-02-15T10:33:37.895Z,41.40
2019-02-15T10:36:07.030Z,52.00
2019-02-15T10:38:36.282Z,54.63
2019-02-15T10:41:05.494Z,45.03
2019-02-15T10:43:34.666Z,44.37
2019-02-15T10:46:03.922Z,38.97
2019-02-15T10:48:33.154Z,43.90
2019-02-15T10:51:02.359Z,39.70
2019-02-15T10:53:31.593Z,39.77
2019-02-15T10:56:00.734Z,44.67
2019-02-15T10:58:29.991Z,49.17
2019-02-15T11:00:59.173Z,44.60
2019-02-15T11:03:28.398Z,44.13
2019-02-15T11:05:57.611Z,49.13
2019-02-15T11:08:28.349Z,53.47
2019-02-15T11:10:57.505Z,48.83
2019-02-15T11:13:26.661Z,51.10
2019-02-15T11:15:55.806Z,51.47
2019-02-15T11:18:24.946Z,47.97
2019-02-15T11:20:54.200Z,49.50
2019-02-15T11:23:23.345Z,42.93
2019-02-15T11:25:52.516Z,45.50
2019-02-15T11:28:21.645Z,46.50
2019-02-15T11:30:50.910Z,48.53
2019-02-15T11:33:20.162Z,46.70
2019-02-15T11:35:49.307Z,47.67
2019-02-15T11:38:18.485Z,49.77
2019-02-15T11:40:48.064Z,58.00
2019-02-15T11:43:17.412Z,50.90
2019-02-15T11:45:46.596Z,46.73
2019-02-15T11:48:15.779Z,45.63
2019-02-15T11:50:44.949Z,42.77
2019-02-15T11:53:14.159Z,45.63
2019-02-15T11:55:43.332Z,43.10
2019-02-15T11:58:12.587Z,44.20
2019-02-15T12:00:41.813Z,50.53
2019-02-15T12:03:11.024Z,49.03
2019-02-15T12:05:40.202Z,46.67
2019-02-15T12:08:09.343Z,46.73
2019-02-15T12:10:38.546Z,37.53
2019-02-15T12:13:07.797Z,38.70
2019-02-15T12:15:37.002Z,39.13
2019-02-15T12:18:06.651Z,45.00
2019-02-15T12:20:35.826Z,46.67
2019-02-15T12:23:05.055Z,41.70
2019-02-15T12:25:34.268Z,40.27
2019-02-15T12:28:03.504Z,43.90
2019-02-15T12:30:32.666Z,39.50
2019-02-15T12:33:01.818Z,39.83
2019-02-15T12:35:30.952Z,43.73
2019-02-15T12:38:00.182Z,46.73
2019-02-15T12:40:29.346Z,41.03
2019-02-15T12:42:58.495Z,38.57
2019-02-15T12:45:27.688Z,39.50
2019-02-15T12:47:56.965Z,37.97
2019-02-15T12:50:26.101Z,42.03
2019-02-15T12:52:55.285Z,38.20
2019-02-15T12:55:24.558Z,45.93
2019-02-15T12:57:53.737Z,42.17
2019-02-15T13:00:22.886Z,40.83
2019-02-15T13:02:52.090Z,45.40
2019-02-15T13:05:21.302Z,51.83
2019-02-15T13:07:50.457Z,50.37
2019-02-15T13:10:22.453Z,49.77
2019-02-15T13:12:51.810Z,47.83
2019-02-15T13:15:21.019Z,52.97
2019-02-15T13:17:50.216Z,47.87
2019-02-15T13:20:19.382Z,48.03
2019-02-15T13:22:48.526Z,43.73
2019-02-15T13:25:17.773Z,49.03
2019-02-15T13:27:46.924Z,43.67
2019-02-15T13:30:16.110Z,40.00
2019-02-15T13:32:45.267Z,51.40
2019-02-15T13:35:15.326Z,44.17
2019-02-15T13:37:44.506Z,50.83
2019-02-15T13:40:14.193Z,50.30
2019-02-15T13:42:43.538Z,46.77
2019-02-15T13:45:12.702Z,44.73
2019-02-15T13:47:41.863Z,52.80
2019-02-15T13:50:11.849Z,59.47
2019-02-15T13:52:41.054Z,52.47
2019-02-15T13:55:14.714Z,44.70
2019-02-15T13:57:43.882Z,43.73
2019-02-15T14:00:13.266Z,46.93
2019-02-15T14:02:42.798Z,49.83
2019-02-15T14:05:11.956Z,47.83
2019-02-15T14:07:41.121Z,50.57
2019-02-15T14:10:11.129Z,46.37
2019-02-15T14:12:40.463Z,50.40
2019-02-15T14:15:10.008Z,44.43
2019-02-15T14:17:44.733Z,51.37
2019-02-15T14:20:10.982Z,46.33
2019-02-15T14:22:40.135Z,56.30
2019-02-15T14:25:09.770Z,52.50
2019-02-15T14:27:39.013Z,59.50
2019-02-15T14:30:09.397Z,51.83
2019-02-15T14:32:38.650Z,58.97
2019-02-15T14:35:08.711Z,52.00
2019-02-15T14:37:37.899Z,54.63
2019-02-15T14:40:07.502Z,50.13
2019-02-15T14:42:36.662Z,65.33
2019-02-15T14:45:06.142Z,57.73
2019-02-15T14:47:35.273Z,53.70
2019-02-15T14:50:04.467Z,49.87
2019-02-15T14:52:33.639Z,49.00
2019-02-15T14:55:02.870Z,41.00
2019-02-15T14:57:32.039Z,48.23
2019-02-15T15:00:01.279Z,47.93
2019-02-15T15:02:30.421Z,45.03
2019-02-15T15:04:59.614Z,46.30
2019-02-15T15:07:28.823Z,62.27
2019-02-15T15:09:57.990Z,78.33
2019-02-15T15:12:27.137Z,72.63
2019-02-15T15:14:56.377Z,59.23
2019-02-15T15:17:25.641Z,50.80
2019-02-15T15:19:54.795Z,50.40
2019-02-15T15:22:23.941Z,44.90
2019-02-15T15:24:53.174Z,54.10
2019-02-15T15:27:22.370Z,43.80
2019-02-15T15:29:51.591Z,50.00
2019-02-15T15:32:20.837Z,42.50
2019-02-15T15:34:50.038Z,43.17
2019-02-15T15:37:19.210Z,49.10
2019-02-15T15:39:48.413Z,50.07
2019-02-15T15:42:17.702Z,51.17
2019-02-15T15:44:47.031Z,48.70
2019-02-15T15:47:16.338Z,52.10
2019-02-15T15:49:45.482Z,66.43
2019-02-15T15:52:14.681Z,76.30
2019-02-15T15:54:43.830Z,69.53
2019-02-15T15:57:12.992Z,59.67
2019-02-15T15:59:42.233Z,61.60
2019-02-15T16:02:11.367Z,53.80
2019-02-15T16:04:40.502Z,61.23
2019-02-15T16:07:09.706Z,65.97
2019-02-15T16:09:38.930Z,62.07
2019-02-15T16:12:08.077Z,65.87
2019-02-15T16:14:37.291Z,66.20
2019-02-15T16:17:06.448Z,57.97
2019-02-15T16:19:40.413Z,60.47
2019-02-15T16:22:06.506Z,65.60
2019-02-15T16:24:35.678Z,74.33
2019-02-15T16:27:04.972Z,69.93
2019-02-15T16:29:34.218Z,70.50
2019-02-15T16:32:03.557Z,75.20
2019-02-15T16:34:32.717Z,89.80
2019-02-15T16:37:01.886Z,121.43
2019-02-15T16:39:31.198Z,121.33
2019-02-15T16:42:00.338Z,107.47
2019-02-15T16:44:29.502Z,94.00
2019-02-15T16:46:58.665Z,98.90
2019-02-15T16:49:27.890Z,98.50
2019-02-15T16:51:57.033Z,91.07
2019-02-15T16:54:26.214Z,97.57
2019-02-15T16:56:55.341Z,92.07
2019-02-15T16:59:24.498Z,89.93
2019-02-15T17:01:53.674Z,94.93
2019-02-15T17:04:22.843Z,84.50
2019-02-15T17:06:52.050Z,98.70
2019-02-15T17:09:21.206Z,99.57
2019-02-15T17:11:50.393Z,91.80
2019-02-15T17:14:19.544Z,103.03
2019-02-15T17:16:48.766Z,102.27
2019-02-15T17:19:17.922Z,106.10
2019-02-15T17:21:47.144Z,102.13
2019-02-15T17:24:16.313Z,112.20
2019-02-15T17:26:45.466Z,102.83
2019-02-15T17:29:14.642Z,101.60
2019-02-15T17:31:43.882Z,114.00
2019-02-15T17:34:13.062Z,110.83
2019-02-15T17:36:42.258Z,129.17
2019-02-15T17:39:11.511Z,122.73
2019-02-15T17:41:40.656Z,123.57
2019-02-15T17:44:09.803Z,124.27
2019-02-15T17:46:38.951Z,129.47
2019-02-15T17:49:08.131Z,134.27
2019-02-15T17:51:37.294Z,135.60
2019-02-15T17:54:06.521Z,140.13
2019-02-15T17:56:35.697Z,158.00
2019-02-15T17:59:06.305Z,148.13
2019-02-15T18:01:35.530Z,140.30
2019-02-15T18:04:04.814Z,147.50
2019-02-15T18:06:34.037Z,155.10
2019-02-15T18:09:03.291Z,157.07
2019-02-15T18:11:32.457Z,184.60
2019-02-15T18:14:01.610Z,189.23
2019-02-15T18:16:30.884Z,188.70
2019-02-15T18:19:00.030Z,179.67
2019-02-15T18:21:29.173Z,205.10
2019-02-15T18:23:58.340Z,200.87
2019-02-15T18:26:27.498Z,204.23
2019-02-15T18:28:56.646Z,200.67
2019-02-15T18:31:25.894Z,218.23
2019-02-15T18:33:55.127Z,238.47
2019-02-15T18:36:24.411Z,216.33
2019-02-15T18:38:53.701Z,184.47
2019-02-15T18:41:23.015Z,175.13
2019-02-15T18:43:52.251Z,173.00
2019-02-15T18:46:21.554Z,187.13
2019-02-15T18:48:50.786Z,189.23
2019-02-15T18:51:19.925Z,191.63
2019-02-15T18:53:49.058Z,204.37
2019-02-15T18:56:18.242Z,176.83
2019-02-15T18:58:47.476Z,182.97
2019-02-15T19:01:16.650Z,186.97
2019-02-15T19:03:45.833Z,211.70
2019-02-15T19:06:14.997Z,249.37
2019-02-15T19:08:44.156Z,249.77
2019-02-15T19:11:13.414Z,261.23
2019-02-15T19:13:42.562Z,255.20
2019-02-15T19:16:11.738Z,255.17
2019-02-15T19:18:40.983Z,244.03
2019-02-15T19:21:10.140Z,244.30
2019-02-15T19:23:39.410Z,253.73
2019-02-15T19:26:08.682Z,220.73
2019-02-15T19:28:38.008Z,246.93
2019-02-15T19:31:07.305Z,247.60
2019-02-15T19:33:36.570Z,237.13
2019-02-15T19:36:06.418Z,216.47
2019-02-15T19:38:35.720Z,224.83
2019-02-15T19:41:05.437Z,248.77
2019-02-15T19:43:34.707Z,248.37
2019-02-15T19:46:03.909Z,272.13
2019-02-15T19:48:33.091Z,269.17
2019-02-15T19:51:02.375Z,246.50
2019-02-15T19:53:31.641Z,249.20
2019-02-15T19:56:00.876Z,231.43
2019-02-15T19:58:30.104Z,249.13
2019-02-15T20:00:59.408Z,194.43
2019-02-15T20:03:28.626Z,195.33
2019-02-15T20:05:57.885Z,213.30
2019-02-15T20:08:27.115Z,196.57
2019-02-15T20:10:56.244Z,192.87
2019-02-15T20:13:25.414Z,202.30
2019-02-15T20:15:54.554Z,200.17
2019-02-15T20:18:23.789Z,198.53
2019-02-15T20:20:53.015Z,194.37
2019-02-15T20:23:22.265Z,184.73
2019-02-15T20:25:51.436Z,183.83
2019-02-15T20:28:20.608Z,184.93
2019-02-15T20:30:49.879Z,186.50
2019-02-15T20:33:19.130Z,172.47
2019-02-15T20:35:48.342Z,171.40
2019-02-15T20:38:17.506Z,177.27
2019-02-15T20:40:46.682Z,188.43
2019-02-15T20:43:15.862Z,194.63
2019-02-15T20:45:45.153Z,195.93
2019-02-15T20:48:14.395Z,221.07
2019-02-15T20:50:43.612Z,227.30
2019-02-15T20:53:12.793Z,252.40
2019-02-15T20:55:41.953Z,260.00
2019-02-15T20:58:11.278Z,266.50
2019-02-15T21:00:40.498Z,253.87
2019-02-15T21:03:09.665Z,241.70
2019-02-15T21:05:38.843Z,258.30
2019-02-15T21:08:07.993Z,266.30
2019-02-15T21:10:37.155Z,260.27
2019-02-15T21:13:06.298Z,265.63
2019-02-15T21:15:35.486Z,269.90
2019-02-15T21:18:04.729Z,263.53
2019-02-15T21:20:33.903Z,260.77
2019-02-15T21:23:03.076Z,253.40
2019-02-15T21:25:32.335Z,244.07
2019-02-15T21:28:01.551Z,260.60
2019-02-15T21:30:30.737Z,250.60
2019-02-15T21:32:59.997Z,252.67
2019-02-15T21:35:29.142Z,246.30
2019-02-15T21:37:58.290Z,262.37
2019-02-15T21:40:27.622Z,252.97
2019-02-15T21:42:56.805Z,246.97
2019-02-15T21:45:25.946Z,247.60
2019-02-15T21:47:55.089Z,261.27
2019-02-15T21:50:24.325Z,277.47
2019-02-15T21:52:53.497Z,284.90
2019-02-15T21:55:22.686Z,259.20
2019-02-15T21:58:00.780Z,264.20
2019-02-15T22:00:22.745Z,286.20
2019-02-15T22:02:51.925Z,267.33
2019-02-15T22:05:21.186Z,273.50
2019-02-15T22:07:50.452Z,253.60
2019-02-15T22:10:19.714Z,260.90
2019-02-15T22:12:48.882Z,263.50
2019-02-15T22:15:18.143Z,250.03
2019-02-15T22:17:47.265Z,250.87
2019-02-15T22:20:16.445Z,266.47
2019-02-15T22:22:45.712Z,240.90
2019-02-15T22:25:14.858Z,251.10
2019-02-15T22:27:44.006Z,256.60
2019-02-15T22:30:14.107Z,262.60
2019-02-15T22:32:43.241Z,252.07
2019-02-15T22:35:12.377Z,261.07
2019-02-15T22:37:41.553Z,262.60
2019-02-15T22:40:33.711Z,265.27
2019-02-15T22:43:14.862Z,266.10
2019-02-15T22:45:44.110Z,247.13
2019-02-15T22:48:13.277Z,260.10
2019-02-15T22:50:42.409Z,264.80
2019-02-15T22:53:11.570Z,264.70
2019-02-15T22:55:40.983Z,265.80
2019-02-15T22:58:10.146Z,269.83
2019-02-15T23:00:50.953Z,266.10
2019-02-15T23:03:22.646Z,257.60
2019-02-15T23:05:51.925Z,256.67
2019-02-15T23:08:21.062Z,264.20
2019-02-15T23:10:50.250Z,254.00
2019-02-15T23:13:19.482Z,246.70
2019-02-15T23:15:48.634Z,235.60
2019-02-15T23:18:19.003Z,234.93
2019-02-15T23:20:48.450Z,233.30
2019-02-15T23:23:17.594Z,236.10
2019-02-15T23:25:46.775Z,231.07
2019-02-15T23:28:15.911Z,234.47
2019-02-15T23:30:45.070Z,220.80
2019-02-15T23:33:14.221Z,220.53
2019-02-15T23:35:43.470Z,216.90
2019-02-15T23:38:12.644Z,217.77
2019-02-15T23:40:41.799Z,213.40
2019-02-15T23:43:11.042Z,215.93
2019-02-15T23:45:40.249Z,219.23
2019-02-15T23:48:09.386Z,218.17
2019-02-15T23:50:38.537Z,225.43
2019-02-15T23:53:07.692Z,212.40
2019-02-15T23:55:36.865Z,218.97
2019-02-15T23:58:06.014Z,213.90
